sensor_id;sensor_type;location;lat;lon;timestamp;pressure;altitude;pressure_sealevel;temperature;humidity
71559;BME280;59382;43.852;25.952;2023-02-13T00:00:09;103371.63;;;5.06;52.20
71559;BME280;59382;43.852;25.952;2023-02-13T00:02:35;103373.09;;;5.10;52.01
71559;BME280;59382;43.852;25.952;2023-02-13T00:05:00;103397.34;;;5.19;52.17
71559;BME280;59382;43.852;25.952;2023-02-13T00:07:25;103402.59;;;5.21;51.91
71559;BME280;59382;43.852;25.952;2023-02-13T00:09:51;103374.19;;;5.07;51.89
71559;BME280;59382;43.852;25.952;2023-02-13T00:12:16;103399.78;;;5.22;51.55
71559;BME280;59382;43.852;25.952;2023-02-13T00:14:42;103398.84;;;5.23;52.16
71559;BME280;59382;43.852;25.952;2023-02-13T00:17:07;103407.81;;;5.22;51.87
71559;BME280;59382;43.852;25.952;2023-02-13T00:19:33;103411.38;;;5.23;51.75
71559;BME280;59382;43.852;25.952;2023-02-13T00:21:58;103410.28;;;5.25;51.77
71559;BME280;59382;43.852;25.952;2023-02-13T00:24:24;103406.00;;;5.23;51.73
71559;BME280;59382;43.852;25.952;2023-02-13T00:26:49;103415.41;;;5.28;51.68
71559;BME280;59382;43.852;25.952;2023-02-13T00:29:15;103416.28;;;5.29;51.05
71559;BME280;59382;43.852;25.952;2023-02-13T00:31:40;103412.00;;;5.26;51.38
71559;BME280;59382;43.852;25.952;2023-02-13T00:34:06;103392.09;;;5.18;51.97
71559;BME280;59382;43.852;25.952;2023-02-13T00:36:31;103413.50;;;5.30;51.71
71559;BME280;59382;43.852;25.952;2023-02-13T00:38:57;103359.41;;;5.02;51.51
71559;BME280;59382;43.852;25.952;2023-02-13T00:41:22;103403.88;;;5.28;51.52
71559;BME280;59382;43.852;25.952;2023-02-13T00:43:48;103407.28;;;5.30;51.36
71559;BME280;59382;43.852;25.952;2023-02-13T00:46:15;103389.31;;;5.19;50.99
71559;BME280;59382;43.852;25.952;2023-02-13T00:48:41;103404.94;;;5.25;51.17
71559;BME280;59382;43.852;25.952;2023-02-13T00:51:07;103379.31;;;5.10;51.03
71559;BME280;59382;43.852;25.952;2023-02-13T00:53:34;103388.06;;;5.12;50.71
71559;BME280;59382;43.852;25.952;2023-02-13T00:56:00;103415.41;;;5.28;50.55
71559;BME280;59382;43.852;25.952;2023-02-13T00:58:25;103417.38;;;5.26;50.44
71559;BME280;59382;43.852;25.952;2023-02-13T01:04:10;103415.03;;;5.22;50.57
71559;BME280;59382;43.852;25.952;2023-02-13T01:06:36;103408.16;;;5.18;50.27
71559;BME280;59382;43.852;25.952;2023-02-13T01:09:02;103413.41;;;5.19;50.57
71559;BME280;59382;43.852;25.952;2023-02-13T01:11:28;103420.59;;;5.19;50.35
71559;BME280;59382;43.852;25.952;2023-02-13T01:13:54;103412.69;;;5.17;50.23
71559;BME280;59382;43.852;25.952;2023-02-13T01:16:19;103405.59;;;5.16;50.46
71559;BME280;59382;43.852;25.952;2023-02-13T01:18:45;103403.66;;;5.18;50.55
71559;BME280;59382;43.852;25.952;2023-02-13T01:21:18;103376.53;;;4.99;50.27
71559;BME280;59382;43.852;25.952;2023-02-13T01:23:45;103388.16;;;5.11;50.15
71559;BME280;59382;43.852;25.952;2023-02-13T01:26:16;103390.22;;;5.07;50.08
71559;BME280;59382;43.852;25.952;2023-02-13T01:28:42;103390.47;;;5.04;50.62
71559;BME280;59382;43.852;25.952;2023-02-13T01:31:07;103390.69;;;5.01;50.44
71559;BME280;59382;43.852;25.952;2023-02-13T01:33:33;103375.19;;;4.94;50.36
71559;BME280;59382;43.852;25.952;2023-02-13T01:36:08;103385.31;;;5.01;50.44
71559;BME280;59382;43.852;25.952;2023-02-13T01:38:34;103386.81;;;5.05;49.89
71559;BME280;59382;43.852;25.952;2023-02-13T01:41:00;103382.94;;;5.09;50.36
71559;BME280;59382;43.852;25.952;2023-02-13T01:43:42;103397.06;;;5.11;49.56
71559;BME280;59382;43.852;25.952;2023-02-13T01:46:08;103391.06;;;5.08;49.76
71559;BME280;59382;43.852;25.952;2023-02-13T01:48:35;103391.50;;;5.02;49.81
71559;BME280;59382;43.852;25.952;2023-02-13T01:51:04;103395.81;;;5.04;49.73
71559;BME280;59382;43.852;25.952;2023-02-13T01:53:35;103398.81;;;5.00;49.87
71559;BME280;59382;43.852;25.952;2023-02-13T01:56:20;103394.50;;;4.97;49.19
71559;BME280;59382;43.852;25.952;2023-02-13T01:58:51;103378.06;;;4.91;50.30
71559;BME280;59382;43.852;25.952;2023-02-13T02:01:18;103370.38;;;4.86;49.91
71559;BME280;59382;43.852;25.952;2023-02-13T02:03:52;103405.31;;;5.08;49.84
71559;BME280;59382;43.852;25.952;2023-02-13T02:06:27;103395.38;;;5.10;49.54
71559;BME280;59382;43.852;25.952;2023-02-13T02:08:57;103396.84;;;5.14;50.08
71559;BME280;59382;43.852;25.952;2023-02-13T02:11:33;103379.53;;;5.07;49.05
71559;BME280;59382;43.852;25.952;2023-02-13T02:14:00;103390.41;;;5.17;49.21
71559;BME280;59382;43.852;25.952;2023-02-13T02:16:28;103370.53;;;5.08;49.18
71559;BME280;59382;43.852;25.952;2023-02-13T02:18:54;103387.84;;;5.15;49.33
71559;BME280;59382;43.852;25.952;2023-02-13T02:22:02;103389.03;;;5.11;48.68
71559;BME280;59382;43.852;25.952;2023-02-13T02:24:51;103359.56;;;4.88;48.75
71559;BME280;59382;43.852;25.952;2023-02-13T02:33:31;103390.84;;;5.11;48.26
71559;BME280;59382;43.852;25.952;2023-02-13T02:36:21;103393.63;;;5.09;48.86
71559;BME280;59382;43.852;25.952;2023-02-13T02:44:26;103390.91;;;4.98;48.79
71559;BME280;59382;43.852;25.952;2023-02-13T02:47:19;103391.94;;;4.96;48.70
71559;BME280;59382;43.852;25.952;2023-02-13T02:50:32;103394.75;;;4.94;48.90
71559;BME280;59382;43.852;25.952;2023-02-13T02:53:51;103386.38;;;4.99;48.57
71559;BME280;59382;43.852;25.952;2023-02-13T02:56:22;103352.38;;;4.88;48.59
71559;BME280;59382;43.852;25.952;2023-02-13T02:58:54;103390.97;;;5.09;48.95
71559;BME280;59382;43.852;25.952;2023-02-13T03:01:40;103378.03;;;5.03;48.42
71559;BME280;59382;43.852;25.952;2023-02-13T03:04:30;103389.25;;;5.08;48.47
71559;BME280;59382;43.852;25.952;2023-02-13T03:07:16;103394.72;;;5.07;48.53
71559;BME280;59382;43.852;25.952;2023-02-13T03:09:46;103384.88;;;5.07;48.63
71559;BME280;59382;43.852;25.952;2023-02-13T03:12:41;103391.50;;;5.14;47.98
71559;BME280;59382;43.852;25.952;2023-02-13T03:15:28;103391.28;;;5.17;48.57
71559;BME280;59382;43.852;25.952;2023-02-13T03:17:55;103359.22;;;4.92;48.53
71559;BME280;59382;43.852;25.952;2023-02-13T03:21:15;103385.50;;;5.11;48.22
71559;BME280;59382;43.852;25.952;2023-02-13T03:24:20;103382.44;;;5.04;48.57
71559;BME280;59382;43.852;25.952;2023-02-13T03:27:02;103383.91;;;5.08;48.46
71559;BME280;59382;43.852;25.952;2023-02-13T03:29:38;103393.63;;;5.09;48.37
71559;BME280;59382;43.852;25.952;2023-02-13T03:35:27;103395.59;;;5.07;48.30
71559;BME280;59382;43.852;25.952;2023-02-13T03:38:24;103391.28;;;5.05;48.51
71559;BME280;59382;43.852;25.952;2023-02-13T03:41:06;103385.31;;;5.01;47.91
71559;BME280;59382;43.852;25.952;2023-02-13T03:44:02;103391.94;;;5.08;48.41
71559;BME280;59382;43.852;25.952;2023-02-13T03:46:36;103396.31;;;5.09;48.58
71559;BME280;59382;43.852;25.952;2023-02-13T03:49:05;103382.53;;;5.03;48.50
71559;BME280;59382;43.852;25.952;2023-02-13T03:52:01;103362.84;;;4.91;47.98
71559;BME280;59382;43.852;25.952;2023-02-13T03:54:43;103401.66;;;5.09;48.11
71559;BME280;59382;43.852;25.952;2023-02-13T03:57:31;103398.16;;;5.09;47.79
71559;BME280;59382;43.852;25.952;2023-02-13T04:00:16;103395.38;;;5.10;48.50
71559;BME280;59382;43.852;25.952;2023-02-13T04:05:28;103387.84;;;5.15;47.66
71559;BME280;59382;43.852;25.952;2023-02-13T04:07:56;103395.16;;;5.13;48.38
71559;BME280;59382;43.852;25.952;2023-02-13T04:10:23;103393.31;;;5.14;47.74
71559;BME280;59382;43.852;25.952;2023-02-13T04:18:29;103363.28;;;4.85;48.38
71559;BME280;59382;43.852;25.952;2023-02-13T04:20:59;103395.81;;;5.04;48.12
71559;BME280;59382;43.852;25.952;2023-02-13T04:23:25;103398.38;;;5.06;48.29
71559;BME280;59382;43.852;25.952;2023-02-13T04:25:53;103390.47;;;5.04;48.13
71559;BME280;59382;43.852;25.952;2023-02-13T04:28:20;103383.59;;;5.00;48.90
71559;BME280;59382;43.852;25.952;2023-02-13T04:30:45;103391.94;;;5.08;48.76
71559;BME280;59382;43.852;25.952;2023-02-13T04:33:11;103395.38;;;5.10;48.55
71559;BME280;59382;43.852;25.952;2023-02-13T04:35:36;103405.97;;;5.12;48.78
71559;BME280;59382;43.852;25.952;2023-02-13T04:38:02;103390.91;;;4.98;48.16
71559;BME280;59382;43.852;25.952;2023-02-13T04:40:28;103393.69;;;4.97;48.33
71559;BME280;59382;43.852;25.952;2023-02-13T04:42:53;103402.31;;;5.00;48.36
71559;BME280;59382;43.852;25.952;2023-02-13T04:45:19;103396.16;;;4.87;48.44
71559;BME280;59382;43.852;25.952;2023-02-13T04:47:56;103392.44;;;4.65;48.03
71559;BME280;59382;43.852;25.952;2023-02-13T04:50:22;103397.69;;;4.66;48.70
71559;BME280;59382;43.852;25.952;2023-02-13T04:52:53;103384.72;;;4.60;48.08
71559;BME280;59382;43.852;25.952;2023-02-13T04:55:20;103395.00;;;4.79;48.07
71559;BME280;59382;43.852;25.952;2023-02-13T04:57:45;103404.41;;;4.84;48.13
71559;BME280;59382;43.852;25.952;2023-02-13T05:00:13;103411.66;;;4.82;48.32
71559;BME280;59382;43.852;25.952;2023-02-13T05:02:38;103398.00;;;4.74;47.87
71559;BME280;59382;43.852;25.952;2023-02-13T05:05:04;103413.84;;;4.77;49.13
71559;BME280;59382;43.852;25.952;2023-02-13T05:07:30;103417.66;;;4.73;48.78
71559;BME280;59382;43.852;25.952;2023-02-13T05:09:55;103407.66;;;4.64;48.81
71559;BME280;59382;43.852;25.952;2023-02-13T05:12:21;103429.44;;;4.71;49.00
71559;BME280;59382;43.852;25.952;2023-02-13T05:14:46;103411.69;;;4.57;49.66
71559;BME280;59382;43.852;25.952;2023-02-13T05:17:12;103421.97;;;4.63;49.44
71559;BME280;59382;43.852;25.952;2023-02-13T05:19:37;103399.09;;;4.34;49.36
71559;BME280;59382;43.852;25.952;2023-02-13T05:22:03;103435.03;;;4.55;49.42
71559;BME280;59382;43.852;25.952;2023-02-13T05:24:47;103442.28;;;4.53;49.67
71559;BME280;59382;43.852;25.952;2023-02-13T05:27:12;103429.00;;;4.39;49.64
71559;BME280;59382;43.852;25.952;2023-02-13T05:29:38;103445.69;;;4.43;49.21
71559;BME280;59382;43.852;25.952;2023-02-13T05:32:04;103434.34;;;4.39;49.77
71559;BME280;59382;43.852;25.952;2023-02-13T05:34:29;103436.09;;;4.40;49.56
71559;BME280;59382;43.852;25.952;2023-02-13T05:36:55;103438.88;;;4.39;50.37
71559;BME280;59382;43.852;25.952;2023-02-13T05:39:20;103455.53;;;4.42;49.92
71559;BME280;59382;43.852;25.952;2023-02-13T05:41:47;103451.25;;;4.40;49.64
71559;BME280;59382;43.852;25.952;2023-02-13T05:44:14;103458.41;;;4.39;50.28
71559;BME280;59382;43.852;25.952;2023-02-13T05:46:43;103451.22;;;4.27;49.48
71559;BME280;59382;43.852;25.952;2023-02-13T05:49:10;103449.31;;;4.29;49.35
71559;BME280;59382;43.852;25.952;2023-02-13T05:51:36;103459.16;;;4.29;50.05
71559;BME280;59382;43.852;25.952;2023-02-13T05:54:01;103456.16;;;4.21;49.59
71559;BME280;59382;43.852;25.952;2023-02-13T05:56:27;103459.13;;;4.16;49.82
71559;BME280;59382;43.852;25.952;2023-02-13T05:58:54;103445.44;;;4.08;50.04
71559;BME280;59382;43.852;25.952;2023-02-13T06:01:20;103459.66;;;4.21;49.69
71559;BME280;59382;43.852;25.952;2023-02-13T06:03:46;103450.56;;;4.11;50.04
71559;BME280;59382;43.852;25.952;2023-02-13T06:06:12;103468.88;;;4.17;49.74
71559;BME280;59382;43.852;25.952;2023-02-13T06:08:50;103446.44;;;3.93;49.63
71559;BME280;59382;43.852;25.952;2023-02-13T06:11:18;103471.94;;;4.11;50.33
71559;BME280;59382;43.852;25.952;2023-02-13T06:13:44;103474.97;;;4.19;49.62
71559;BME280;59382;43.852;25.952;2023-02-13T06:16:10;103454.75;;;4.15;49.66
71559;BME280;59382;43.852;25.952;2023-02-13T06:18:36;103468.69;;;4.33;49.74
71559;BME280;59382;43.852;25.952;2023-02-13T06:21:02;103451.44;;;4.24;49.67
71559;BME280;59382;43.852;25.952;2023-02-13T06:23:28;103466.84;;;4.33;49.28
71559;BME280;59382;43.852;25.952;2023-02-13T06:25:54;103448.88;;;4.23;49.30
71559;BME280;59382;43.852;25.952;2023-02-13T06:28:19;103447.81;;;4.25;49.52
71559;BME280;59382;43.852;25.952;2023-02-13T06:30:46;103449.97;;;4.45;49.50
71559;BME280;59382;43.852;25.952;2023-02-13T06:33:13;103455.78;;;4.64;48.47
71559;BME280;59382;43.852;25.952;2023-02-13T06:35:39;103449.34;;;4.79;48.68
71559;BME280;59382;43.852;25.952;2023-02-13T06:38:04;103458.94;;;5.07;48.82
71559;BME280;59382;43.852;25.952;2023-02-13T06:40:30;103457.53;;;5.26;49.05
71559;BME280;59382;43.852;25.952;2023-02-13T06:42:58;103448.06;;;5.33;48.18
71559;BME280;59382;43.852;25.952;2023-02-13T06:45:24;103426.53;;;5.35;48.43
71559;BME280;59382;43.852;25.952;2023-02-13T06:47:49;103441.84;;;5.69;48.29
71559;BME280;59382;43.852;25.952;2023-02-13T06:50:16;103453.63;;;6.14;48.13
71559;BME280;59382;43.852;25.952;2023-02-13T06:53:07;103447.91;;;6.53;46.68
71559;BME280;59382;43.852;25.952;2023-02-13T06:55:41;103445.25;;;6.86;46.88
71559;BME280;59382;43.852;25.952;2023-02-13T06:58:07;103423.28;;;7.03;46.48
71559;BME280;59382;43.852;25.952;2023-02-13T07:00:32;103441.78;;;7.39;45.84
71559;BME280;59382;43.852;25.952;2023-02-13T07:03:03;103434.41;;;7.63;45.43
71559;BME280;59382;43.852;25.952;2023-02-13T07:05:30;103428.56;;;7.89;45.36
71559;BME280;59382;43.852;25.952;2023-02-13T07:07:56;103425.66;;;8.13;45.21
71559;BME280;59382;43.852;25.952;2023-02-13T07:10:21;103400.69;;;8.22;44.65
71559;BME280;59382;43.852;25.952;2023-02-13T07:12:47;103418.38;;;8.45;44.29
71559;BME280;59382;43.852;25.952;2023-02-13T07:15:15;103414.84;;;8.65;44.26
71559;BME280;59382;43.852;25.952;2023-02-13T07:17:41;103408.66;;;8.74;44.11
71559;BME280;59382;43.852;25.952;2023-02-13T07:20:07;103403.03;;;8.87;43.83
71559;BME280;59382;43.852;25.952;2023-02-13T07:22:33;103399.34;;;8.88;43.53
71559;BME280;59382;43.852;25.952;2023-02-13T07:24:59;103412.75;;;9.08;43.33
71559;BME280;59382;43.852;25.952;2023-02-13T07:27:25;103398.28;;;9.09;43.35
71559;BME280;59382;43.852;25.952;2023-02-13T07:29:56;103396.31;;;9.11;43.11
71559;BME280;59382;43.852;25.952;2023-02-13T07:32:23;103399.38;;;8.97;43.13
71559;BME280;59382;43.852;25.952;2023-02-13T07:34:49;103383.06;;;8.89;43.26
71559;BME280;59382;43.852;25.952;2023-02-13T07:37:14;103406.22;;;9.01;43.38
71559;BME280;59382;43.852;25.952;2023-02-13T07:39:40;103389.34;;;8.99;43.08
71559;BME280;59382;43.852;25.952;2023-02-13T07:42:05;103380.72;;;9.05;43.13
71559;BME280;59382;43.852;25.952;2023-02-13T07:44:31;103384.41;;;9.14;43.21
71559;BME280;59382;43.852;25.952;2023-02-13T07:46:57;103391.53;;;9.24;42.90
71559;BME280;59382;43.852;25.952;2023-02-13T07:49:25;103380.75;;;9.24;42.87
71559;BME280;59382;43.852;25.952;2023-02-13T07:52:10;103386.72;;;9.37;42.68
71559;BME280;59382;43.852;25.952;2023-02-13T07:54:36;103389.72;;;9.44;42.35
71559;BME280;59382;43.852;25.952;2023-02-13T07:57:12;103392.53;;;9.23;41.64
71559;BME280;59382;43.852;25.952;2023-02-13T07:59:38;103372.50;;;9.07;42.08
71559;BME280;59382;43.852;25.952;2023-02-13T08:02:10;103386.28;;;9.13;42.44
71559;BME280;59382;43.852;25.952;2023-02-13T08:04:36;103358.00;;;8.98;42.09
71559;BME280;59382;43.852;25.952;2023-02-13T08:07:02;103368.50;;;9.01;42.22
71559;BME280;59382;43.852;25.952;2023-02-13T08:09:27;103387.81;;;9.16;41.88
71559;BME280;59382;43.852;25.952;2023-02-13T08:12:11;103379.88;;;9.14;41.81
71559;BME280;59382;43.852;25.952;2023-02-13T08:14:38;103373.44;;;8.96;41.83
71559;BME280;59382;43.852;25.952;2023-02-13T08:17:03;103377.00;;;8.97;41.84
71559;BME280;59382;43.852;25.952;2023-02-13T08:19:29;103377.22;;;8.84;41.73
71559;BME280;59382;43.852;25.952;2023-02-13T08:21:55;103370.97;;;8.74;41.90
71559;BME280;59382;43.852;25.952;2023-02-13T08:24:21;103376.81;;;8.79;42.25
71559;BME280;59382;43.852;25.952;2023-02-13T08:26:46;103373.00;;;8.91;42.57
71559;BME280;59382;43.852;25.952;2023-02-13T08:29:12;103378.75;;;9.07;42.15
71559;BME280;59382;43.852;25.952;2023-02-13T08:31:37;103375.91;;;9.18;41.92
71559;BME280;59382;43.852;25.952;2023-02-13T08:34:03;103354.22;;;9.10;42.45
71559;BME280;59382;43.852;25.952;2023-02-13T08:36:30;103374.78;;;9.11;42.11
71559;BME280;59382;43.852;25.952;2023-02-13T08:38:56;103356.28;;;8.97;42.24
71559;BME280;59382;43.852;25.952;2023-02-13T08:41:22;103368.78;;;8.98;42.48
71559;BME280;59382;43.852;25.952;2023-02-13T08:43:48;103359.38;;;8.83;42.81
71559;BME280;59382;43.852;25.952;2023-02-13T08:46:15;103329.25;;;8.59;42.83
71559;BME280;59382;43.852;25.952;2023-02-13T08:48:44;103353.81;;;8.75;42.79
71559;BME280;59382;43.852;25.952;2023-02-13T08:51:11;103358.66;;;8.81;43.34
71559;BME280;59382;43.852;25.952;2023-02-13T08:53:37;103362.78;;;8.85;42.78
71559;BME280;59382;43.852;25.952;2023-02-13T08:56:03;103345.19;;;8.81;42.67
71559;BME280;59382;43.852;25.952;2023-02-13T08:58:29;103351.72;;;8.88;42.65
71559;BME280;59382;43.852;25.952;2023-02-13T09:01:04;103350.47;;;8.92;42.52
71559;BME280;59382;43.852;25.952;2023-02-13T09:03:29;103354.91;;;9.03;42.45
71559;BME280;59382;43.852;25.952;2023-02-13T09:05:58;103358.03;;;9.08;42.54
71559;BME280;59382;43.852;25.952;2023-02-13T09:08:24;103354.38;;;9.18;42.22
71559;BME280;59382;43.852;25.952;2023-02-13T09:10:58;103340.78;;;9.29;41.72
71559;BME280;59382;43.852;25.952;2023-02-13T09:13:25;103350.16;;;9.44;41.74
71559;BME280;59382;43.852;25.952;2023-02-13T09:15:50;103340.78;;;9.48;41.45
71559;BME280;59382;43.852;25.952;2023-02-13T09:18:16;103328.31;;;9.47;41.35
71559;BME280;59382;43.852;25.952;2023-02-13T09:20:42;103344.75;;;9.54;41.64
71559;BME280;59382;43.852;25.952;2023-02-13T09:23:09;103330.84;;;9.58;41.68
71559;BME280;59382;43.852;25.952;2023-02-13T09:25:35;103332.16;;;9.64;41.21
71559;BME280;59382;43.852;25.952;2023-02-13T09:28:01;103332.28;;;9.72;41.24
71559;BME280;59382;43.852;25.952;2023-02-13T09:30:26;103314.69;;;9.68;41.07
71559;BME280;59382;43.852;25.952;2023-02-13T09:32:53;103309.56;;;9.55;40.76
71559;BME280;59382;43.852;25.952;2023-02-13T09:35:20;103295.69;;;9.41;41.11
71559;BME280;59382;43.852;25.952;2023-02-13T09:37:46;103291.72;;;9.35;41.32
71559;BME280;59382;43.852;25.952;2023-02-13T09:40:41;103311.00;;;9.40;41.08
71559;BME280;59382;43.852;25.952;2023-02-13T09:45:42;103262.91;;;9.07;41.67
71559;BME280;59382;43.852;25.952;2023-02-13T09:48:17;103274.72;;;9.25;42.02
71559;BME280;59382;43.852;25.952;2023-02-13T09:50:43;103272.97;;;9.24;41.32
71559;BME280;59382;43.852;25.952;2023-02-13T09:53:19;103276.97;;;9.30;41.33
71559;BME280;59382;43.852;25.952;2023-02-13T09:55:54;103268.19;;;9.28;41.67
71559;BME280;59382;43.852;25.952;2023-02-13T09:59:02;103266.19;;;9.39;41.14
71559;BME280;59382;43.852;25.952;2023-02-13T10:01:31;103266.19;;;9.39;41.47
71559;BME280;59382;43.852;25.952;2023-02-13T10:04:24;103257.97;;;9.41;41.39
71559;BME280;59382;43.852;25.952;2023-02-13T10:10:01;103246.03;;;9.43;41.26
71559;BME280;59382;43.852;25.952;2023-02-13T10:17:47;103218.81;;;9.08;42.47
71559;BME280;59382;43.852;25.952;2023-02-13T10:22:50;103227.34;;;9.13;42.36
71559;BME280;59382;43.852;25.952;2023-02-13T10:25:24;103213.00;;;9.03;42.60
71559;BME280;59382;43.852;25.952;2023-02-13T10:28:04;103206.91;;;9.11;42.80
71559;BME280;59382;43.852;25.952;2023-02-13T10:30:34;103221.09;;;9.13;42.91
71559;BME280;59382;43.852;25.952;2023-02-13T10:33:46;103214.84;;;9.12;43.18
71559;BME280;59382;43.852;25.952;2023-02-13T10:36:22;103212.28;;;9.11;43.45
71559;BME280;59382;43.852;25.952;2023-02-13T10:38:57;103199.25;;;9.06;43.90
71559;BME280;59382;43.852;25.952;2023-02-13T10:42:07;103193.31;;;9.03;43.23
71559;BME280;59382;43.852;25.952;2023-02-13T10:49:46;103168.06;;;8.94;44.14
71559;BME280;59382;43.852;25.952;2023-02-13T10:52:40;103191.59;;;9.11;44.04
71559;BME280;59382;43.852;25.952;2023-02-13T11:01:15;103190.59;;;9.12;44.15
71559;BME280;59382;43.852;25.952;2023-02-13T11:03:43;103177.13;;;9.12;44.42
71559;BME280;59382;43.852;25.952;2023-02-13T11:06:14;103174.59;;;9.11;44.44
71559;BME280;59382;43.852;25.952;2023-02-13T11:08:43;103170.50;;;9.16;44.53
71559;BME280;59382;43.852;25.952;2023-02-13T11:14:13;103168.09;;;9.13;44.80
71559;BME280;59382;43.852;25.952;2023-02-13T11:16:58;103154.19;;;9.08;44.52
71559;BME280;59382;43.852;25.952;2023-02-13T11:19:25;103162.13;;;9.19;44.56
71559;BME280;59382;43.852;25.952;2023-02-13T11:22:15;103162.13;;;9.19;44.61
71559;BME280;59382;43.852;25.952;2023-02-13T11:25:21;103155.88;;;9.19;44.51
71559;BME280;59382;43.852;25.952;2023-02-13T11:27:48;103154.63;;;9.13;45.05
71559;BME280;59382;43.852;25.952;2023-02-13T11:30:32;103152.91;;;9.12;45.01
71559;BME280;59382;43.852;25.952;2023-02-13T11:32:59;103150.19;;;9.12;45.42
71559;BME280;59382;43.852;25.952;2023-02-13T11:35:32;103135.75;;;9.13;45.97
71559;BME280;59382;43.852;25.952;2023-02-13T11:40:45;103133.47;;;9.18;46.53
71559;BME280;59382;43.852;25.952;2023-02-13T11:43:34;103126.09;;;9.20;46.49
71559;BME280;59382;43.852;25.952;2023-02-13T11:46:07;103117.16;;;9.20;46.14
71559;BME280;59382;43.852;25.952;2023-02-13T11:48:35;103101.56;;;9.23;46.53
71559;BME280;59382;43.852;25.952;2023-02-13T11:51:01;103106.53;;;9.28;46.49
71559;BME280;59382;43.852;25.952;2023-02-13T11:53:35;103114.97;;;9.42;46.51
71559;BME280;59382;43.852;25.952;2023-02-13T11:56:12;103109.59;;;9.42;46.95
71559;BME280;59382;43.852;25.952;2023-02-13T11:58:38;103092.47;;;9.34;46.56
71559;BME280;59382;43.852;25.952;2023-02-13T12:01:08;103113.16;;;9.43;46.55
71559;BME280;59382;43.852;25.952;2023-02-13T12:03:34;103085.22;;;9.34;46.89
71559;BME280;59382;43.852;25.952;2023-02-13T12:06:11;103091.75;;;9.41;46.93
71559;BME280;59382;43.852;25.952;2023-02-13T12:08:45;103079.13;;;9.32;46.67
71559;BME280;59382;43.852;25.952;2023-02-13T12:13:51;103076.84;;;9.37;46.98
71559;BME280;59382;43.852;25.952;2023-02-13T12:16:37;103090.16;;;9.48;46.99
71559;BME280;59382;43.852;25.952;2023-02-13T12:19:10;103087.16;;;9.51;47.05
71559;BME280;59382;43.852;25.952;2023-02-13T12:21:51;103093.69;;;9.49;46.99
71559;BME280;59382;43.852;25.952;2023-02-13T12:38:06;103073.91;;;9.21;48.34
71559;BME280;59382;43.852;25.952;2023-02-13T12:40:43;103077.44;;;9.31;48.09
71559;BME280;59382;43.852;25.952;2023-02-13T12:52:01;103087.31;;;9.40;48.46
71559;BME280;59382;43.852;25.952;2023-02-13T13:02:57;103078.41;;;9.40;48.58
71559;BME280;59382;43.852;25.952;2023-02-13T13:10:56;103076.44;;;9.32;48.96
71559;BME280;59382;43.852;25.952;2023-02-13T13:16:12;103077.13;;;9.34;49.33
71559;BME280;59382;43.852;25.952;2023-02-13T13:26:14;103060.88;;;9.26;49.10
71559;BME280;59382;43.852;25.952;2023-02-13T13:28:48;103034.28;;;9.04;49.21
71559;BME280;59382;43.852;25.952;2023-02-13T13:31:15;103056.06;;;9.20;49.29
71559;BME280;59382;43.852;25.952;2023-02-13T13:33:45;103039.38;;;9.07;49.51
71559;BME280;59382;43.852;25.952;2023-02-13T13:47:22;103029.13;;;9.20;49.53
71559;BME280;59382;43.852;25.952;2023-02-13T13:49:55;103027.88;;;9.15;49.56
71559;BME280;59382;43.852;25.952;2023-02-13T13:52:31;103025.19;;;9.15;49.62
71559;BME280;59382;43.852;25.952;2023-02-13T13:55:03;103001.38;;;9.01;49.58
71559;BME280;59382;43.852;25.952;2023-02-13T14:07:53;102999.72;;;8.90;50.09
71559;BME280;59382;43.852;25.952;2023-02-13T14:18:18;103013.19;;;8.90;50.27
71559;BME280;59382;43.852;25.952;2023-02-13T14:25:44;102988.13;;;8.80;50.34
71559;BME280;59382;43.852;25.952;2023-02-13T14:28:23;103008.78;;;8.89;50.48
71559;BME280;59382;43.852;25.952;2023-02-13T14:30:51;103017.56;;;8.91;50.30
71559;BME280;59382;43.852;25.952;2023-02-13T14:33:26;103018.16;;;8.85;50.62
71559;BME280;59382;43.852;25.952;2023-02-13T14:36:21;103013.19;;;8.90;50.84
71559;BME280;59382;43.852;25.952;2023-02-13T14:38:59;103023.94;;;8.90;50.39
71559;BME280;59382;43.852;25.952;2023-02-13T14:44:36;103017.16;;;8.86;50.64
71559;BME280;59382;43.852;25.952;2023-02-13T14:49:50;103012.06;;;8.83;50.59
71559;BME280;59382;43.852;25.952;2023-02-13T14:52:23;102999.75;;;8.81;50.52
71559;BME280;59382;43.852;25.952;2023-02-13T14:55:00;103011.78;;;8.86;50.66
71559;BME280;59382;43.852;25.952;2023-02-13T14:57:28;103010.78;;;8.87;50.84
71559;BME280;59382;43.852;25.952;2023-02-13T15:00:24;103012.16;;;8.91;50.52
71559;BME280;59382;43.852;25.952;2023-02-13T15:02:52;102995.63;;;8.86;50.61
71559;BME280;59382;43.852;25.952;2023-02-13T15:05:19;103001.81;;;8.96;50.55
71559;BME280;59382;43.852;25.952;2023-02-13T15:07:53;102998.41;;;8.94;50.80
71559;BME280;59382;43.852;25.952;2023-02-13T15:10:35;102995.88;;;8.93;50.78
71559;BME280;59382;43.852;25.952;2023-02-13T15:13:33;102976.22;;;8.83;50.83
71559;BME280;59382;43.852;25.952;2023-02-13T15:16:05;102996.00;;;8.91;51.02
71559;BME280;59382;43.852;25.952;2023-02-13T15:18:47;102992.63;;;8.89;51.13
71559;BME280;59382;43.852;25.952;2023-02-13T15:21:23;102985.88;;;8.85;50.75
71559;BME280;59382;43.852;25.952;2023-02-13T15:23:53;102992.22;;;8.84;51.09
71559;BME280;59382;43.852;25.952;2023-02-13T15:26:23;102992.34;;;8.83;51.22
71559;BME280;59382;43.852;25.952;2023-02-13T15:29:26;102955.31;;;8.58;51.40
71559;BME280;59382;43.852;25.952;2023-02-13T15:31:52;102977.94;;;8.74;51.14
71559;BME280;59382;43.852;25.952;2023-02-13T15:34:29;102975.53;;;8.71;51.01
71559;BME280;59382;43.852;25.952;2023-02-13T15:36:56;102984.63;;;8.70;51.41
71559;BME280;59382;43.852;25.952;2023-02-13T15:39:27;102992.13;;;8.67;51.52